createdAt,value
2018-10-02T00:01:06.482Z,6.24
2018-10-02T00:02:16.619Z,6.34
2018-10-02T00:03:26.813Z,6.28
2018-10-02T00:04:37.041Z,6.31
2018-10-02T00:05:47.252Z,6.31
2018-10-02T00:06:57.588Z,6.34
2018-10-02T00:08:07.704Z,6.27
2018-10-02T00:09:18.043Z,6.24
2018-10-02T00:10:28.175Z,6.31
2018-10-02T00:11:37.955Z,6.3
2018-10-02T00:12:48.052Z,6.28
2018-10-02T00:13:58.168Z,6.19
2018-10-02T00:15:08.270Z,6.26
2018-10-02T00:16:18.803Z,6.23
2018-10-02T00:17:28.924Z,6.2
2018-10-02T00:18:39.058Z,6.16
2018-10-02T00:19:49.188Z,6.16
2018-10-02T00:20:59.295Z,6.17
2018-10-02T00:22:09.412Z,6.14
2018-10-02T00:23:19.539Z,6.11
2018-10-02T00:24:29.692Z,6.09
2018-10-02T00:25:39.792Z,6.12
2018-10-02T00:26:49.690Z,6.16
2018-10-02T00:27:59.913Z,6.08
2018-10-02T00:29:10.126Z,6.17
2018-10-02T00:30:20.307Z,6.17
2018-10-02T00:31:30.936Z,6.14
2018-10-02T00:32:41.416Z,6.05
2018-10-02T00:33:51.546Z,6.11
2018-10-02T00:35:01.383Z,6.11
2018-10-02T00:36:11.522Z,6.05
2018-10-02T00:37:21.682Z,6.05
2018-10-02T00:38:31.905Z,6.08
2018-10-02T00:39:42.225Z,6.08
2018-10-02T00:40:52.427Z,6.11
2018-10-02T00:42:02.525Z,6.03
2018-10-02T00:43:12.385Z,6.06
2018-10-02T00:44:22.653Z,6.05
2018-10-02T00:45:32.837Z,6.03
2018-10-02T00:46:42.986Z,6.09
2018-10-02T00:47:53.403Z,6.05
2018-10-02T00:49:03.568Z,6.05
2018-10-02T00:50:13.745Z,6.03
2018-10-02T00:51:23.877Z,6.11
2018-10-02T00:52:34.005Z,6.06
2018-10-02T00:53:44.161Z,6.05
2018-10-02T00:54:54.261Z,6.08
2018-10-02T00:56:04.414Z,6.08
2018-10-02T00:57:14.540Z,6.11
2018-10-02T00:58:24.642Z,6.05
2018-10-02T00:59:34.600Z,6.02
2018-10-02T01:00:44.982Z,6.08
2018-10-02T01:01:55.096Z,6.06
2018-10-02T01:03:05.238Z,6.02
2018-10-02T01:04:15.401Z,6.06
2018-10-02T01:05:25.963Z,6.12
2018-10-02T01:06:36.068Z,6.12
2018-10-02T01:07:46.164Z,5.99
2018-10-02T01:08:56.268Z,5.99
2018-10-02T01:10:05.960Z,5.96
2018-10-02T01:11:15.714Z,5.99
2018-10-02T01:12:25.950Z,6.03
2018-10-02T01:13:36.193Z,6.03
2018-10-02T01:14:46.433Z,6.01
2018-10-02T01:15:56.638Z,5.99
2018-10-02T01:17:07.063Z,5.99
2018-10-02T01:18:17.200Z,5.9
2018-10-02T01:19:27.102Z,5.91
2018-10-02T01:20:37.207Z,5.93
2018-10-02T01:21:47.331Z,5.86
2018-10-02T01:22:57.482Z,5.9
2018-10-02T01:24:07.669Z,5.84
2018-10-02T01:25:17.995Z,5.93
2018-10-02T01:26:27.866Z,5.88
2018-10-02T01:27:37.980Z,5.82
2018-10-02T01:28:48.130Z,5.88
2018-10-02T01:29:57.998Z,5.9
2018-10-02T01:31:08.107Z,5.86
2018-10-02T01:32:18.274Z,5.91
2018-10-02T01:33:28.516Z,5.82
2018-10-02T01:34:38.620Z,5.84
2018-10-02T01:35:48.767Z,5.84
2018-10-02T01:36:58.863Z,5.86
2018-10-02T01:38:08.938Z,5.93
2018-10-02T01:39:18.788Z,5.83
2018-10-02T01:40:28.646Z,5.75
2018-10-02T01:41:39.725Z,5.93
2018-10-02T01:42:50.234Z,5.88
2018-10-02T01:44:00.352Z,5.77
2018-10-02T01:45:10.154Z,5.84
2018-10-02T01:46:20.271Z,5.75
2018-10-02T01:47:30.111Z,5.86
2018-10-02T01:48:39.980Z,5.82
2018-10-02T01:49:49.572Z,5.79
2018-10-02T01:51:00.896Z,5.8
2018-10-02T01:52:10.952Z,5.74
2018-10-02T01:53:21.118Z,5.77
2018-10-02T01:54:31.246Z,5.8
2018-10-02T01:55:41.389Z,5.83
2018-10-02T01:56:51.518Z,5.88
2018-10-02T01:58:01.657Z,5.8
2018-10-02T01:59:11.817Z,5.84
2018-10-02T02:00:21.941Z,5.8
2018-10-02T02:01:32.115Z,5.74
2018-10-02T02:02:42.222Z,5.68
2018-10-02T02:03:52.450Z,5.72
2018-10-02T02:05:02.054Z,5.72
2018-10-02T02:06:11.868Z,5.68
2018-10-02T02:07:21.981Z,5.72
2018-10-02T02:08:32.196Z,5.71
2018-10-02T02:09:42.055Z,5.71
2018-10-02T02:10:52.222Z,5.65
2018-10-02T02:12:02.464Z,5.71
2018-10-02T02:13:12.740Z,5.68
2018-10-02T02:14:22.877Z,5.71
2018-10-02T02:15:32.735Z,5.74
2018-10-02T02:16:43.096Z,5.71
2018-10-02T02:17:53.189Z,5.69
2018-10-02T02:19:03.335Z,5.71
2018-10-02T02:20:13.447Z,5.72
2018-10-02T02:21:23.257Z,5.72
2018-10-02T02:22:33.445Z,5.75
2018-10-02T02:23:43.632Z,5.69
2018-10-02T02:24:53.861Z,5.71
2018-10-02T02:26:04.058Z,5.68
2018-10-02T02:27:14.183Z,5.75
2018-10-02T02:28:24.392Z,5.69
2018-10-02T02:29:34.505Z,5.68
2018-10-02T02:30:44.651Z,5.68
2018-10-02T02:31:54.707Z,5.62
2018-10-02T02:33:04.832Z,5.54
2018-10-02T02:34:14.944Z,5.61
2018-10-02T02:35:24.822Z,5.56
2018-10-02T02:36:35.137Z,5.58
2018-10-02T02:37:45.416Z,5.61
2018-10-02T02:38:55.548Z,5.59
2018-10-02T02:40:05.394Z,5.61
2018-10-02T02:41:15.257Z,5.61
2018-10-02T02:42:25.355Z,5.71
2018-10-02T02:43:35.513Z,5.58
2018-10-02T02:44:45.727Z,5.61
2018-10-02T02:45:55.925Z,5.61
2018-10-02T02:47:06.090Z,5.53
2018-10-02T02:48:16.331Z,5.54
2018-10-02T02:49:26.434Z,5.54
2018-10-02T02:50:36.749Z,5.59
2018-10-02T02:51:47.004Z,5.56
2018-10-02T02:52:57.375Z,5.54
2018-10-02T02:54:07.943Z,5.49
2018-10-02T02:55:18.218Z,5.46
2018-10-02T02:56:28.329Z,5.49
2018-10-02T02:57:38.610Z,5.47
2018-10-02T02:58:48.793Z,5.46
2018-10-02T02:59:58.954Z,5.41
2018-10-02T03:01:09.056Z,5.43
2018-10-02T03:02:21.109Z,5.31
2018-10-02T03:03:31.272Z,5.31
2018-10-02T03:04:41.396Z,5.31
2018-10-02T03:05:51.751Z,5.26
2018-10-02T03:07:01.918Z,5.31
2018-10-02T03:08:11.681Z,5.33
2018-10-02T03:09:21.805Z,5.29
2018-10-02T03:10:31.655Z,5.29
2018-10-02T03:11:41.861Z,5.28
2018-10-02T03:12:52.006Z,5.29
2018-10-02T03:14:02.220Z,5.16
2018-10-02T03:15:12.091Z,5.16
2018-10-02T03:16:22.315Z,5.04
2018-10-02T03:17:32.426Z,5.07
2018-10-02T03:18:42.598Z,5.08
2018-10-02T03:19:52.749Z,5.08
2018-10-02T03:21:02.875Z,5.13
2018-10-02T03:22:12.984Z,5.14
2018-10-02T03:23:23.096Z,5.21
2018-10-02T03:24:33.068Z,5.18
2018-10-02T03:25:43.195Z,5.24
2018-10-02T03:26:53.283Z,5.18
2018-10-02T03:28:03.438Z,5.21
2018-10-02T03:29:13.634Z,5.11
2018-10-02T03:30:23.493Z,5.11
2018-10-02T03:31:33.619Z,5.08
2018-10-02T03:32:44.270Z,5.08
2018-10-02T03:33:54.423Z,5.1
2018-10-02T03:35:04.280Z,5.1
2018-10-02T03:36:14.146Z,5.08
2018-10-02T03:37:24.240Z,5.11
2018-10-02T03:38:34.009Z,5.13
2018-10-02T03:39:44.188Z,5.07
2018-10-02T03:40:54.357Z,5.18
2018-10-02T03:42:04.464Z,5.14
2018-10-02T03:43:14.801Z,5.25
2018-10-02T03:44:24.975Z,5.18
2018-10-02T03:45:35.095Z,5.21
2018-10-02T03:46:45.159Z,5.17
2018-10-02T03:47:55.281Z,5.22
2018-10-02T03:49:05.469Z,5.22
2018-10-02T03:50:15.868Z,5.22
2018-10-02T03:51:26.037Z,5.16
2018-10-02T03:52:36.155Z,5.16
2018-10-02T03:53:46.258Z,5.21
2018-10-02T03:54:56.157Z,5.21
2018-10-02T03:56:06.307Z,5.11
2018-10-02T03:57:16.455Z,5.06
2018-10-02T03:58:27.531Z,4.98
2018-10-02T03:59:37.677Z,4.92
2018-10-02T04:00:47.786Z,4.85
2018-10-02T04:01:57.888Z,4.83
2018-10-02T04:03:08.119Z,4.78
2018-10-02T04:04:18.360Z,4.83
2018-10-02T04:05:28.536Z,4.74
2018-10-02T04:06:39.033Z,4.8
2018-10-02T04:07:50.109Z,4.7
2018-10-02T04:08:59.860Z,4.8
2018-10-02T04:10:09.843Z,4.71
2018-10-02T04:11:19.944Z,4.8
2018-10-02T04:12:30.044Z,4.68
2018-10-02T04:13:40.406Z,4.77
2018-10-02T04:14:50.509Z,4.83
2018-10-02T04:16:00.624Z,4.75
2018-10-02T04:17:10.744Z,4.68
2018-10-02T04:18:20.603Z,4.67
2018-10-02T04:19:30.451Z,4.71
2018-10-02T04:20:40.695Z,4.77
2018-10-02T04:21:51.133Z,4.7
2018-10-02T04:23:01.245Z,4.75
2018-10-02T04:24:11.112Z,4.8
2018-10-02T04:25:21.221Z,4.7
2018-10-02T04:26:31.322Z,4.67
2018-10-02T04:27:41.448Z,4.71
2018-10-02T04:28:51.923Z,4.71
2018-10-02T04:30:02.270Z,4.78
2018-10-02T04:31:12.631Z,4.89
2018-10-02T04:32:22.750Z,4.8
2018-10-02T04:33:32.921Z,4.85
2018-10-02T04:34:43.161Z,4.86
2018-10-02T04:35:53.289Z,4.78
2018-10-02T04:37:03.169Z,4.83
2018-10-02T04:38:13.198Z,4.83
2018-10-02T04:39:23.407Z,4.77
2018-10-02T04:40:33.200Z,4.85
2018-10-02T04:41:43.301Z,4.81
2018-10-02T04:42:53.431Z,4.93
2018-10-02T04:44:03.590Z,4.9
2018-10-02T04:45:13.749Z,5
2018-10-02T04:46:24.015Z,4.93
2018-10-02T04:47:34.231Z,4.93
2018-10-02T04:48:45.328Z,4.96
2018-10-02T04:49:55.523Z,5
2018-10-02T04:51:05.784Z,4.98
2018-10-02T04:52:16.049Z,5.03
2018-10-02T04:53:26.165Z,4.89
2018-10-02T04:54:36.467Z,4.93
2018-10-02T04:55:46.896Z,4.88
2018-10-02T04:56:57.030Z,4.93
2018-10-02T04:58:07.225Z,4.89
2018-10-02T04:59:17.416Z,4.92
2018-10-02T05:00:27.319Z,4.98
2018-10-02T05:01:37.445Z,4.93
2018-10-02T05:02:47.549Z,4.89
2018-10-02T05:03:57.486Z,4.93
2018-10-02T05:05:07.622Z,4.83
2018-10-02T05:06:17.783Z,4.81
2018-10-02T05:07:27.946Z,4.78
2018-10-02T05:08:38.212Z,4.83
2018-10-02T05:09:47.886Z,4.77
2018-10-02T05:10:58.038Z,4.86
2018-10-02T05:12:08.045Z,4.86
2018-10-02T05:13:18.517Z,4.81
2018-10-02T05:14:28.467Z,4.77
2018-10-02T05:15:38.638Z,4.71
2018-10-02T05:16:48.800Z,4.77
2018-10-02T05:17:59.068Z,4.74
2018-10-02T05:19:09.286Z,4.7
2018-10-02T05:20:19.457Z,4.75
2018-10-02T05:21:29.918Z,4.73
2018-10-02T05:22:40.058Z,4.74
2018-10-02T05:23:50.166Z,4.81
2018-10-02T05:25:00.311Z,4.89
2018-10-02T05:26:10.585Z,4.78
2018-10-02T05:27:21.077Z,4.68
2018-10-02T05:28:31.642Z,4.68
2018-10-02T05:29:41.762Z,4.75
2018-10-02T05:30:51.885Z,4.77
2018-10-02T05:32:02.092Z,4.73
2018-10-02T05:33:12.286Z,4.74
2018-10-02T05:34:22.120Z,4.74
2018-10-02T05:35:32.125Z,4.77
2018-10-02T05:36:42.275Z,4.81
2018-10-02T05:37:52.387Z,4.81
2018-10-02T05:39:02.525Z,4.75
2018-10-02T05:40:12.393Z,4.83
2018-10-02T05:41:22.157Z,4.86
2018-10-02T05:42:32.090Z,4.83
2018-10-02T05:43:42.459Z,4.92
2018-10-02T05:44:52.935Z,4.95
2018-10-02T05:46:02.830Z,4.93
2018-10-02T05:47:13.049Z,4.96
2018-10-02T05:48:23.226Z,4.96
2018-10-02T05:49:33.098Z,5
2018-10-02T05:50:43.528Z,5.07
2018-10-02T05:51:53.867Z,5.06
2018-10-02T05:53:04.005Z,5.08
2018-10-02T05:54:14.127Z,5.13
2018-10-02T05:55:24.253Z,5.25
2018-10-02T05:56:34.376Z,5.22
2018-10-02T05:57:44.591Z,5.32
2018-10-02T05:58:54.456Z,5.25
2018-10-02T06:00:04.336Z,5.25
2018-10-02T06:01:14.480Z,5.31
2018-10-02T06:02:24.665Z,5.24
2018-10-02T06:03:35.105Z,5.33
2018-10-02T06:04:45.317Z,5.22
2018-10-02T06:05:55.454Z,5.25
2018-10-02T06:07:05.580Z,5.18
2018-10-02T06:08:15.711Z,5.28
2018-10-02T06:09:25.590Z,5.32
2018-10-02T06:10:35.715Z,5.28
2018-10-02T06:11:45.835Z,5.31
2018-10-02T06:12:55.965Z,5.33
2018-10-02T06:14:06.377Z,5.33
2018-10-02T06:15:16.527Z,5.41
2018-10-02T06:16:26.655Z,5.25
2018-10-02T06:17:37.019Z,5.41
2018-10-02T06:18:47.455Z,5.43
2018-10-02T06:19:57.864Z,5.38
2018-10-02T06:21:08.224Z,5.43
2018-10-02T06:22:18.641Z,5.46
2018-10-02T06:23:28.973Z,5.46
2018-10-02T06:24:39.317Z,5.43
2018-10-02T06:25:49.874Z,5.53
2018-10-02T06:26:59.698Z,5.43
2018-10-02T06:28:10.057Z,5.46
2018-10-02T06:29:21.142Z,5.51
2018-10-02T06:30:31.752Z,5.54
2018-10-02T06:31:42.196Z,5.62
2018-10-02T06:32:53.488Z,5.54
2018-10-02T06:34:03.431Z,5.56
2018-10-02T06:35:13.727Z,5.67
2018-10-02T06:36:23.858Z,5.61
2018-10-02T06:37:34.220Z,5.54
2018-10-02T06:38:44.785Z,5.58
2018-10-02T06:39:55.075Z,5.58
2018-10-02T06:41:05.244Z,5.61
2018-10-02T06:42:15.410Z,5.61
2018-10-02T06:43:25.541Z,5.59
2018-10-02T06:44:35.903Z,5.59
2018-10-02T06:45:46.288Z,5.62
2018-10-02T06:46:56.400Z,5.67
2018-10-02T06:48:06.559Z,5.68
2018-10-02T06:49:16.869Z,5.74
2018-10-02T06:50:27.036Z,5.72
2018-10-02T06:51:37.293Z,5.77
2018-10-02T06:52:48.467Z,5.93
2018-10-02T06:53:58.806Z,5.88
2018-10-02T06:55:08.947Z,5.93
2018-10-02T06:56:18.835Z,6.03
2018-10-02T06:57:29.036Z,5.93
2018-10-02T06:58:39.194Z,5.99
2018-10-02T06:59:49.320Z,6.02
2018-10-02T07:00:59.515Z,6.11
2018-10-02T07:02:09.783Z,6.11
2018-10-02T07:03:19.975Z,6.03
2018-10-02T07:04:30.209Z,6.08
2018-10-02T07:05:44.010Z,6.06
2018-10-02T07:06:54.457Z,6.06
2018-10-02T07:08:04.666Z,6.05
2018-10-02T07:09:14.819Z,6.06
2018-10-02T07:10:24.951Z,6.11
2018-10-02T07:11:35.074Z,6.16
2018-10-02T07:12:46.574Z,6.17
2018-10-02T07:13:56.722Z,6.2
2018-10-02T07:15:07.159Z,6.26
2018-10-02T07:16:17.852Z,6.17
2018-10-02T07:17:28.173Z,6.23
2018-10-02T07:18:38.641Z,6.36
2018-10-02T07:19:48.393Z,6.28
2018-10-02T07:20:58.839Z,6.41
2018-10-02T07:22:09.437Z,6.53
2018-10-02T07:23:19.798Z,6.59
2018-10-02T07:24:30.037Z,6.53
2018-10-02T07:25:40.396Z,6.63
2018-10-02T07:26:51.447Z,6.59
2018-10-02T07:28:03.760Z,6.69
2018-10-02T07:29:14.197Z,6.63
2018-10-02T07:30:24.441Z,6.63
2018-10-02T07:31:34.756Z,6.75
2018-10-02T07:32:45.163Z,6.77
2018-10-02T07:33:55.787Z,6.77
2018-10-02T07:35:06.199Z,6.77
2018-10-02T07:36:16.385Z,6.71
2018-10-02T07:37:26.648Z,6.79
2018-10-02T07:38:36.707Z,6.79
2018-10-02T07:39:46.932Z,6.79
2018-10-02T07:40:57.073Z,6.95
2018-10-02T07:42:07.832Z,6.9
2018-10-02T07:43:18.249Z,6.99
2018-10-02T07:44:28.493Z,6.95
2018-10-02T07:45:38.818Z,6.97
2018-10-02T07:46:48.951Z,6.97
2018-10-02T07:47:59.137Z,6.95
2018-10-02T07:49:10.689Z,7
2018-10-02T07:50:21.015Z,7
2018-10-02T07:51:31.256Z,7.15
2018-10-02T07:52:41.400Z,7.2
2018-10-02T07:53:51.673Z,7.11
2018-10-02T07:55:01.751Z,7.21
2018-10-02T07:56:11.920Z,7.22
2018-10-02T07:57:22.284Z,7.22
2018-10-02T07:58:32.501Z,7.21
2018-10-02T07:59:42.933Z,7.18
2018-10-02T08:00:53.331Z,7.24
2018-10-02T08:02:03.742Z,7.2
2018-10-02T08:03:14.237Z,7.21
2018-10-02T08:04:24.176Z,7.17
2018-10-02T08:05:34.473Z,7.22
2018-10-02T08:06:44.867Z,7.17
2018-10-02T08:07:55.017Z,7.22
2018-10-02T08:09:05.437Z,7.22
2018-10-02T08:10:15.694Z,7.14
2018-10-02T08:11:26.001Z,7.18
2018-10-02T08:12:36.411Z,7.21
2018-10-02T08:13:46.667Z,7.26
2018-10-02T08:14:57.274Z,7.28
2018-10-02T08:16:07.499Z,7.21
2018-10-02T08:17:17.280Z,7.21
2018-10-02T08:18:27.461Z,7.24
2018-10-02T08:19:37.638Z,7.18
2018-10-02T08:20:48.072Z,7.28
2018-10-02T08:21:58.088Z,7.21
2018-10-02T08:23:08.240Z,7.34
2018-10-02T08:24:18.411Z,7.41
2018-10-02T08:25:28.249Z,7.49
2018-10-02T08:26:38.797Z,7.56
2018-10-02T08:27:49.495Z,7.64
2018-10-02T08:28:59.897Z,7.67
2018-10-02T08:30:10.757Z,7.64
2018-10-02T08:31:21.334Z,7.82
2018-10-02T08:32:31.613Z,7.76
2018-10-02T08:33:42.168Z,7.84
2018-10-02T08:34:52.283Z,7.88
2018-10-02T08:36:03.402Z,8.02
2018-10-02T08:37:14.253Z,8.05
2018-10-02T08:38:24.513Z,8.1
2018-10-02T08:39:35.123Z,8.05
2018-10-02T08:40:45.352Z,8.07
2018-10-02T08:41:55.857Z,8.12
2018-10-02T08:43:06.660Z,8.03
2018-10-02T08:44:16.852Z,8.03
2018-10-02T08:45:27.055Z,7.97
2018-10-02T08:46:37.250Z,7.84
2018-10-02T08:47:47.325Z,7.8
2018-10-02T08:48:57.273Z,7.8
2018-10-02T08:50:07.194Z,7.8
2018-10-02T08:51:17.399Z,7.79
2018-10-02T08:52:27.656Z,7.8
2018-10-02T08:53:37.963Z,7.74
2018-10-02T08:54:48.097Z,7.79
2018-10-02T08:55:58.242Z,7.62
2018-10-02T08:57:08.552Z,7.55
2018-10-02T08:58:18.743Z,7.52
2018-10-02T08:59:28.979Z,7.55
2018-10-02T09:00:39.380Z,7.51
2018-10-02T09:01:49.925Z,7.34
2018-10-02T09:03:00.275Z,7.44
2018-10-02T09:04:14.070Z,7.4
2018-10-02T09:05:24.198Z,7.33
2018-10-02T09:06:34.513Z,7.26
2018-10-02T09:07:44.654Z,7.26
2018-10-02T09:08:54.799Z,7.28
2018-10-02T09:10:04.679Z,7.22
2018-10-02T09:11:14.817Z,7.29
2018-10-02T09:12:25.151Z,7.22
2018-10-02T09:13:35.367Z,7.29
2018-10-02T09:14:45.257Z,7.4
2018-10-02T09:15:56.242Z,7.54
2018-10-02T09:17:06.660Z,7.55
2018-10-02T09:18:16.963Z,7.66
2018-10-02T09:19:26.906Z,7.55
2018-10-02T09:20:37.124Z,7.61
2018-10-02T09:21:48.009Z,7.55
2018-10-02T09:22:58.115Z,7.58
2018-10-02T09:24:08.283Z,7.55
2018-10-02T09:25:18.301Z,7.55
2018-10-02T09:26:28.570Z,7.61
2018-10-02T09:27:38.499Z,7.52
2018-10-02T09:28:49.382Z,7.58
2018-10-02T09:29:59.661Z,7.55
2018-10-02T09:31:10.209Z,7.47
2018-10-02T09:32:20.679Z,7.52
2018-10-02T09:33:30.976Z,7.54
2018-10-02T09:34:41.313Z,7.51
2018-10-02T09:35:51.516Z,7.48
2018-10-02T09:37:02.107Z,7.52
2018-10-02T09:38:12.605Z,7.55
2018-10-02T09:39:22.871Z,7.61
2018-10-02T09:40:33.374Z,7.64
2018-10-02T09:41:43.520Z,7.7
2018-10-02T09:42:53.808Z,7.74
2018-10-02T09:44:04.265Z,7.74
2018-10-02T09:45:14.373Z,7.92
2018-10-02T09:46:24.628Z,7.84
2018-10-02T09:47:34.839Z,7.82
2018-10-02T09:48:45.293Z,7.8
2018-10-02T09:49:55.795Z,7.85
2018-10-02T09:51:06.503Z,7.84
2018-10-02T09:52:16.501Z,7.88
2018-10-02T09:53:26.680Z,7.77
2018-10-02T09:54:37.079Z,7.76
2018-10-02T09:55:47.769Z,7.79
2018-10-02T09:56:58.104Z,7.8
2018-10-02T09:58:08.662Z,7.76
2018-10-02T09:59:18.845Z,7.77
2018-10-02T10:00:29.070Z,7.62
2018-10-02T10:01:39.303Z,7.43
2018-10-02T10:02:49.592Z,7.36
2018-10-02T10:03:59.540Z,7.29
2018-10-02T10:05:09.736Z,7.21
2018-10-02T10:06:20.060Z,7.22
2018-10-02T10:07:30.206Z,7.15
2018-10-02T10:08:40.239Z,7.13
2018-10-02T10:09:50.371Z,7.06
2018-10-02T10:11:00.539Z,7.02
2018-10-02T10:12:10.664Z,6.99
2018-10-02T10:13:20.809Z,7.03
2018-10-02T10:14:31.202Z,6.97
2018-10-02T10:15:41.354Z,7
2018-10-02T10:16:52.140Z,7.05
2018-10-02T10:18:02.578Z,7.1
2018-10-02T10:19:12.767Z,7.11
2018-10-02T10:20:23.188Z,6.97
2018-10-02T10:21:33.399Z,7.02
2018-10-02T10:22:44.007Z,6.9
2018-10-02T10:23:54.340Z,6.97
2018-10-02T10:25:04.509Z,6.96
2018-10-02T10:26:14.884Z,6.96
2018-10-02T10:27:25.012Z,6.92
2018-10-02T10:28:35.419Z,6.89
2018-10-02T10:29:45.910Z,6.92
2018-10-02T10:30:56.079Z,6.99
2018-10-02T10:32:06.295Z,6.95
2018-10-02T10:33:16.089Z,6.95
2018-10-02T10:34:26.066Z,6.9
2018-10-02T10:35:36.411Z,6.96
2018-10-02T10:36:46.726Z,6.97
2018-10-02T10:37:56.607Z,6.95
2018-10-02T10:39:06.732Z,6.99
2018-10-02T10:40:16.706Z,6.97
2018-10-02T10:41:26.588Z,6.92
2018-10-02T10:42:36.462Z,7.08
2018-10-02T10:43:46.828Z,7.03
2018-10-02T10:44:56.946Z,7.08
2018-10-02T10:46:07.078Z,7.03
2018-10-02T10:47:17.211Z,7.02
2018-10-02T10:48:27.064Z,6.93
2018-10-02T10:49:37.216Z,7
2018-10-02T10:50:47.601Z,7.03
2018-10-02T10:51:57.753Z,6.95
2018-10-02T10:53:08.161Z,7.06
2018-10-02T10:54:18.286Z,7.03
2018-10-02T10:55:28.418Z,7.03
2018-10-02T10:56:38.415Z,7.06
2018-10-02T10:57:48.207Z,7.02
2018-10-02T10:58:58.626Z,7
2018-10-02T11:00:08.945Z,6.99
2018-10-02T11:01:19.081Z,6.9
2018-10-02T11:02:29.219Z,6.9
2018-10-02T11:03:39.137Z,6.9
2018-10-02T11:04:49.479Z,6.9
2018-10-02T11:05:59.741Z,6.99
2018-10-02T11:07:09.648Z,6.97
2018-10-02T11:08:20.033Z,7.06
2018-10-02T11:09:30.544Z,7.11
2018-10-02T11:10:40.944Z,7.1
2018-10-02T11:11:51.098Z,7.08
2018-10-02T11:13:01.249Z,7.22
2018-10-02T11:14:11.543Z,7.17
2018-10-02T11:15:21.935Z,7.2
2018-10-02T11:16:32.360Z,7.24
2018-10-02T11:17:42.233Z,7.21
2018-10-02T11:18:52.490Z,7.14
2018-10-02T11:20:02.757Z,7.31
2018-10-02T11:21:12.897Z,7.26
2018-10-02T11:22:23.059Z,7.24
2018-10-02T11:23:33.203Z,7.24
2018-10-02T11:24:43.371Z,7.31
2018-10-02T11:25:53.879Z,7.33
2018-10-02T11:27:04.330Z,7.34
2018-10-02T11:28:14.629Z,7.48
2018-10-02T11:29:24.826Z,7.54
2018-10-02T11:30:34.684Z,7.62
2018-10-02T11:31:45.189Z,7.67
2018-10-02T11:32:55.709Z,7.64
2018-10-02T11:34:05.890Z,7.61
2018-10-02T11:35:16.142Z,7.72
2018-10-02T11:36:26.319Z,7.66
2018-10-02T11:37:36.598Z,7.59
2018-10-02T11:38:46.581Z,7.67
2018-10-02T11:39:56.838Z,7.64
2018-10-02T11:41:07.050Z,7.67
2018-10-02T11:42:17.200Z,7.67
2018-10-02T11:43:27.582Z,7.7
2018-10-02T11:44:37.843Z,7.59
2018-10-02T11:45:48.428Z,7.62
2018-10-02T11:46:58.613Z,7.56
2018-10-02T11:48:08.530Z,7.54
2018-10-02T11:49:18.749Z,7.51
2018-10-02T11:50:29.685Z,7.52
2018-10-02T11:51:39.614Z,7.47
2018-10-02T11:52:49.800Z,7.44
2018-10-02T11:54:00.001Z,7.54
2018-10-02T11:55:10.262Z,7.47
2018-10-02T11:56:20.585Z,7.55
2018-10-02T11:57:31.136Z,7.49
2018-10-02T11:58:41.896Z,7.47
2018-10-02T11:59:52.042Z,7.52
2018-10-02T12:01:02.681Z,7.51
2018-10-02T12:02:12.830Z,7.56
2018-10-02T12:03:23.371Z,7.47
2018-10-02T12:04:33.893Z,7.48
2018-10-02T12:05:44.302Z,7.51
2018-10-02T12:06:55.050Z,7.51
2018-10-02T12:08:05.243Z,7.52
2018-10-02T12:09:15.527Z,7.48
2018-10-02T12:10:25.895Z,7.48
2018-10-02T12:11:36.124Z,7.55
2018-10-02T12:12:46.513Z,7.4
2018-10-02T12:13:57.181Z,7.47
2018-10-02T12:15:07.574Z,7.47
2018-10-02T12:16:17.983Z,7.56
2018-10-02T12:17:28.373Z,7.49
2018-10-02T12:18:38.517Z,7.44
2018-10-02T12:19:49.543Z,7.52
2018-10-02T12:21:00.630Z,7.51
2018-10-02T12:22:10.795Z,7.48
2018-10-02T12:23:20.969Z,7.48
2018-10-02T12:24:31.131Z,7.49
2018-10-02T12:25:41.298Z,7.54
2018-10-02T12:26:51.641Z,7.54
2018-10-02T12:28:01.418Z,7.51
2018-10-02T12:29:11.102Z,7.58
2018-10-02T12:30:20.616Z,7.56
2018-10-02T12:31:30.852Z,7.67
2018-10-02T12:32:40.444Z,7.59
2018-10-02T12:33:50.334Z,7.62
2018-10-02T12:35:00.136Z,7.54
2018-10-02T12:36:09.759Z,7.58
2018-10-02T12:37:20.059Z,7.58
2018-10-02T12:38:29.971Z,7.51
2018-10-02T12:39:39.367Z,7.61
2018-10-02T12:40:50.251Z,7.61
2018-10-02T12:42:00.184Z,7.62
2018-10-02T12:43:10.303Z,7.67
2018-10-02T12:44:21.398Z,7.62
2018-10-02T12:45:31.317Z,7.69
2018-10-02T12:46:40.879Z,7.76
2018-10-02T12:47:50.787Z,7.72
2018-10-02T12:49:00.694Z,7.72
2018-10-02T12:50:10.454Z,7.7
2018-10-02T12:51:20.422Z,7.67
2018-10-02T12:52:30.704Z,7.82
2018-10-02T12:53:40.517Z,7.74
2018-10-02T12:54:50.403Z,7.76
2018-10-02T12:56:00.290Z,7.79
2018-10-02T12:57:10.168Z,7.73
2018-10-02T12:58:19.431Z,7.88
2018-10-02T12:59:30.198Z,7.9
2018-10-02T13:00:40.178Z,7.9
2018-10-02T13:01:50.140Z,7.85
2018-10-02T13:03:00.341Z,7.82
2018-10-02T13:04:10.263Z,7.9
2018-10-02T13:05:20.125Z,7.88
2018-10-02T13:06:29.689Z,7.87
2018-10-02T13:07:39.707Z,7.98
2018-10-02T13:08:49.890Z,7.98
2018-10-02T13:09:59.583Z,7.95
2018-10-02T13:11:09.214Z,7.91
2018-10-02T13:12:18.901Z,7.99
2018-10-02T13:13:28.771Z,8.05
2018-10-02T13:14:38.372Z,8.09
2018-10-02T13:15:48.253Z,8.05
2018-10-02T13:16:57.866Z,8.02
2018-10-02T13:18:07.790Z,8.12
2018-10-02T13:19:17.915Z,8.1
2018-10-02T13:20:27.658Z,8.03
2018-10-02T13:21:37.159Z,7.95
2018-10-02T13:22:46.764Z,8.15
2018-10-02T13:23:56.702Z,8.15
2018-10-02T13:25:06.731Z,8.07
2018-10-02T13:26:16.908Z,8.12
2018-10-02T13:27:27.056Z,8.15
2018-10-02T13:28:36.898Z,8.15
2018-10-02T13:29:47.047Z,8.21
2018-10-02T13:30:57.482Z,8.21
2018-10-02T13:32:07.401Z,8.13
2018-10-02T13:33:17.594Z,8.12
2018-10-02T13:34:27.900Z,8.31
2018-10-02T13:35:38.161Z,8.3
2018-10-02T13:36:48.534Z,8.13
2018-10-02T13:37:58.983Z,8.1
2018-10-02T13:39:09.280Z,8.2
2018-10-02T13:40:19.619Z,8.16
2018-10-02T13:41:29.748Z,8.25
2018-10-02T13:42:39.926Z,8.1
2018-10-02T13:43:50.073Z,8.24
2018-10-02T13:45:00.225Z,8.13
2018-10-02T13:46:10.447Z,8.21
2018-10-02T13:47:20.678Z,8.24
2018-10-02T13:48:30.859Z,8.2
2018-10-02T13:49:40.666Z,8.21
2018-10-02T13:50:50.969Z,8.17
2018-10-02T13:52:00.842Z,8.15
2018-10-02T13:53:11.012Z,8.21
2018-10-02T13:54:24.361Z,8.16
2018-10-02T13:55:34.531Z,8.2
2018-10-02T13:56:44.665Z,8.2
2018-10-02T13:57:54.852Z,8.2
2018-10-02T13:59:04.997Z,8.21
2018-10-02T14:00:15.384Z,8.17
2018-10-02T14:01:26.134Z,8.21
2018-10-02T14:02:36.526Z,8.17
2018-10-02T14:03:46.729Z,8.21
2018-10-02T14:04:56.892Z,8.15
2018-10-02T14:06:07.037Z,8.12
2018-10-02T14:07:17.237Z,8.12
2018-10-02T14:08:27.016Z,8.12
2018-10-02T14:09:37.158Z,8.16
2018-10-02T14:10:47.338Z,8.15
2018-10-02T14:11:57.488Z,8.17
2018-10-02T14:13:07.607Z,8.15
2018-10-02T14:14:17.774Z,8.21
2018-10-02T14:15:28.090Z,8.12
2018-10-02T14:16:38.112Z,8.12
2018-10-02T14:17:48.698Z,8.13
2018-10-02T14:18:58.839Z,8.06
2018-10-02T14:20:08.997Z,8.03
2018-10-02T14:21:19.153Z,8.07
2018-10-02T14:22:28.945Z,7.95
2018-10-02T14:23:39.416Z,8.02
2018-10-02T14:24:50.287Z,8.03
2018-10-02T14:26:00.458Z,7.99
2018-10-02T14:27:10.721Z,7.99
2018-10-02T14:28:21.031Z,7.99
2018-10-02T14:29:31.263Z,7.92
2018-10-02T14:30:41.133Z,7.99
2018-10-02T14:31:51.349Z,8.03
2018-10-02T14:33:01.802Z,8.02
2018-10-02T14:34:11.966Z,7.95
2018-10-02T14:35:22.269Z,7.87
2018-10-02T14:36:32.543Z,7.92
2018-10-02T14:37:42.879Z,7.98
2018-10-02T14:38:53.014Z,8.03
2018-10-02T14:40:03.240Z,7.92
2018-10-02T14:41:12.886Z,7.98
2018-10-02T14:42:23.021Z,8.02
2018-10-02T14:43:33.168Z,7.91
2018-10-02T14:44:43.359Z,7.95
2018-10-02T14:45:54.449Z,7.91
2018-10-02T14:47:04.829Z,7.91
2018-10-02T14:48:15.088Z,7.82
2018-10-02T14:49:25.400Z,7.85
2018-10-02T14:50:35.831Z,7.73
2018-10-02T14:51:45.617Z,7.82
2018-10-02T14:52:55.808Z,7.76
2018-10-02T14:54:05.961Z,7.77
2018-10-02T14:55:15.988Z,7.77
2018-10-02T14:56:25.653Z,7.79
2018-10-02T14:57:35.897Z,7.66
2018-10-02T14:58:46.310Z,7.7
2018-10-02T14:59:56.470Z,7.72
2018-10-02T15:01:06.687Z,7.62
2018-10-02T15:02:17.026Z,7.74
2018-10-02T15:03:26.912Z,7.74
2018-10-02T15:04:37.129Z,7.76
2018-10-02T15:05:47.425Z,7.77
2018-10-02T15:06:57.673Z,7.79
2018-10-02T15:08:07.903Z,7.67
2018-10-02T15:09:18.092Z,7.72
2018-10-02T15:10:28.354Z,7.64
2018-10-02T15:11:38.308Z,7.73
2018-10-02T15:12:48.783Z,7.73
2018-10-02T15:13:59.056Z,7.73
2018-10-02T15:15:09.269Z,7.76
2018-10-02T15:16:19.462Z,7.82
2018-10-02T15:17:29.732Z,7.77
2018-10-02T15:18:40.015Z,7.77
2018-10-02T15:19:49.899Z,7.82
2018-10-02T15:20:59.947Z,7.77
2018-10-02T15:22:10.188Z,7.84
2018-10-02T15:23:20.099Z,7.77
2018-10-02T15:24:30.341Z,7.79
2018-10-02T15:25:40.729Z,7.77
2018-10-02T15:26:50.944Z,7.8
2018-10-02T15:28:01.086Z,7.92
2018-10-02T15:29:10.978Z,7.8
2018-10-02T15:30:21.332Z,7.9
2018-10-02T15:31:32.288Z,7.87
2018-10-02T15:32:42.598Z,7.9
2018-10-02T15:33:52.426Z,7.8
2018-10-02T15:35:02.613Z,7.9
2018-10-02T15:36:13.913Z,7.85
2018-10-02T15:37:24.243Z,7.87
2018-10-02T15:38:34.783Z,7.98